createdAt,value
2019-05-22T00:00:55.127Z,1000.59
2019-05-22T00:01:55.120Z,1000.53
2019-05-22T00:02:55.126Z,1000.63
2019-05-22T00:03:55.089Z,1000.59
2019-05-22T00:04:55.090Z,1000.60
2019-05-22T00:05:55.075Z,1000.63
2019-05-22T00:06:55.060Z,1000.69
2019-05-22T00:07:55.049Z,1000.63
2019-05-22T00:08:55.048Z,1000.69
2019-05-22T00:09:55.025Z,1000.72
2019-05-22T00:10:55.013Z,1000.77
2019-05-22T00:11:55.013Z,1000.84
2019-05-22T00:12:55.000Z,1000.76
2019-05-22T00:13:55.002Z,1000.88
2019-05-22T00:14:54.980Z,1000.89
2019-05-22T00:15:54.961Z,1000.84
2019-05-22T00:16:54.950Z,1000.88
2019-05-22T00:17:54.939Z,1000.94
2019-05-22T00:18:54.938Z,1000.97
2019-05-22T00:19:54.922Z,1000.98
2019-05-22T00:20:54.916Z,1000.94
2019-05-22T00:21:54.897Z,1000.92
2019-05-22T00:22:54.886Z,1000.95
2019-05-22T00:23:54.895Z,1000.95
2019-05-22T00:24:54.875Z,1000.95
2019-05-22T00:25:54.862Z,1000.94
2019-05-22T00:26:54.855Z,1000.96
2019-05-22T00:27:54.833Z,1000.93
2019-05-22T00:28:54.835Z,1000.97
2019-05-22T00:29:54.810Z,1001.00
2019-05-22T00:30:54.795Z,1000.98
2019-05-22T00:31:54.795Z,1001.00
2019-05-22T00:32:54.783Z,1000.98
2019-05-22T00:33:54.782Z,1001.00
2019-05-22T00:34:54.761Z,1001.05
2019-05-22T00:35:54.748Z,1001.05
2019-05-22T00:36:54.734Z,1001.02
2019-05-22T00:37:54.732Z,1001.05
2019-05-22T00:38:54.734Z,1001.03
2019-05-22T00:39:54.701Z,1001.10
2019-05-22T00:40:54.707Z,1001.03
2019-05-22T00:41:54.678Z,1001.10
2019-05-22T00:43:04.227Z,1001.05
2019-05-22T00:43:55.676Z,1001.08
2019-05-22T00:44:54.651Z,1001.09
2019-05-22T00:45:54.645Z,1001.05
2019-05-22T00:46:54.649Z,1001.18
2019-05-22T00:47:54.611Z,1001.21
2019-05-22T00:48:54.626Z,1001.15
2019-05-22T00:49:54.593Z,1001.20
2019-05-22T00:50:54.582Z,1001.23
2019-05-22T00:51:54.578Z,1001.18
2019-05-22T00:52:54.576Z,1001.24
2019-05-22T00:53:54.551Z,1001.26
2019-05-22T00:54:54.553Z,1001.28
2019-05-22T00:55:54.539Z,1001.30
2019-05-22T00:56:54.523Z,1001.31
2019-05-22T00:57:54.515Z,1001.29
2019-05-22T00:58:54.506Z,1001.32
2019-05-22T00:59:54.497Z,1001.33
2019-05-22T01:00:54.477Z,1001.34
2019-05-22T01:01:54.469Z,1001.34
2019-05-22T01:02:54.461Z,1001.35
2019-05-22T01:03:54.455Z,1001.34
2019-05-22T01:04:54.454Z,1001.37
2019-05-22T01:05:54.432Z,1001.40
2019-05-22T01:06:54.452Z,1001.37
2019-05-22T01:07:54.402Z,1001.37
2019-05-22T01:08:54.388Z,1001.38
2019-05-22T01:09:54.398Z,1001.39
2019-05-22T01:10:54.371Z,1001.33
2019-05-22T01:11:54.357Z,1001.42
2019-05-22T01:12:54.348Z,1001.39
2019-05-22T01:13:54.338Z,1001.37
2019-05-22T01:14:54.355Z,1001.36
2019-05-22T01:15:54.320Z,1001.39
2019-05-22T01:16:54.310Z,1001.36
2019-05-22T01:17:54.306Z,1001.35
2019-05-22T01:18:54.290Z,1001.34
2019-05-22T01:19:54.274Z,1001.34
2019-05-22T01:20:54.275Z,1001.36
2019-05-22T01:21:54.248Z,1001.33
2019-05-22T01:22:54.236Z,1001.34
2019-05-22T01:23:54.234Z,1001.39
2019-05-22T01:24:54.222Z,1001.44
2019-05-22T01:25:54.220Z,1001.37
2019-05-22T01:26:54.193Z,1001.46
2019-05-22T01:27:54.192Z,1001.37
2019-05-22T01:28:54.178Z,1001.39
2019-05-22T01:29:54.175Z,1001.38
2019-05-22T01:30:54.170Z,1001.39
2019-05-22T01:31:54.143Z,1001.48
2019-05-22T01:32:54.135Z,1001.50
2019-05-22T01:33:54.125Z,1001.48
2019-05-22T01:34:54.111Z,1001.57
2019-05-22T01:35:54.133Z,1001.53
2019-05-22T01:36:54.098Z,1001.57
2019-05-22T01:37:54.085Z,1001.61
2019-05-22T01:38:54.075Z,1001.53
2019-05-22T01:39:54.064Z,1001.63
2019-05-22T01:40:54.062Z,1001.58
2019-05-22T01:41:54.040Z,1001.59
2019-05-22T01:42:54.038Z,1001.59
2019-05-22T01:43:54.016Z,1001.60
2019-05-22T01:45:04.340Z,1001.62
2019-05-22T01:45:55.008Z,1001.55
2019-05-22T01:46:53.986Z,1001.56
2019-05-22T01:47:53.977Z,1001.59
2019-05-22T01:48:53.968Z,1001.57
2019-05-22T01:49:53.955Z,1001.58
2019-05-22T01:50:53.964Z,1001.52
2019-05-22T01:51:53.936Z,1001.57
2019-05-22T01:52:53.917Z,1001.46
2019-05-22T01:53:54.031Z,1001.53
2019-05-22T01:54:53.894Z,1001.54
2019-05-22T01:55:53.890Z,1001.54
2019-05-22T01:56:53.891Z,1001.57
2019-05-22T01:57:53.866Z,1001.57
2019-05-22T01:58:53.856Z,1001.54
2019-05-22T01:59:54.843Z,1001.51
2019-05-22T02:00:53.835Z,1001.55
2019-05-22T02:01:53.836Z,1001.52
2019-05-22T02:02:53.813Z,1001.56
2019-05-22T02:03:53.801Z,1001.50
2019-05-22T02:04:53.788Z,1001.50
2019-05-22T02:05:53.796Z,1001.55
2019-05-22T02:06:53.778Z,1001.52
2019-05-22T02:07:53.758Z,1001.55
2019-05-22T02:08:53.748Z,1001.53
2019-05-22T02:09:53.741Z,1001.51
2019-05-22T02:10:53.737Z,1001.56
2019-05-22T02:11:53.735Z,1001.57
2019-05-22T02:12:53.702Z,1001.57
2019-05-22T02:13:53.696Z,1001.56
2019-05-22T02:14:53.686Z,1001.53
2019-05-22T02:15:53.676Z,1001.61
2019-05-22T02:16:57.196Z,1001.56
2019-05-22T02:17:56.491Z,1001.57
2019-05-22T02:18:53.636Z,1001.61
2019-05-22T02:19:53.634Z,1001.59
2019-05-22T02:20:53.618Z,1001.62
2019-05-22T02:21:53.614Z,1001.52
2019-05-22T02:22:53.649Z,1001.54
2019-05-22T02:23:53.583Z,1001.54
2019-05-22T02:24:53.574Z,1001.59
2019-05-22T02:25:53.557Z,1001.58
2019-05-22T02:26:53.553Z,1001.63
2019-05-22T02:27:53.560Z,1001.57
2019-05-22T02:28:53.538Z,1001.66
2019-05-22T02:29:53.517Z,1001.67
2019-05-22T02:30:53.516Z,1001.61
2019-05-22T02:31:55.440Z,1001.62
2019-05-22T02:32:53.510Z,1001.63
2019-05-22T02:33:53.481Z,1001.64
2019-05-22T02:34:53.467Z,1001.63
2019-05-22T02:35:53.455Z,1001.59
2019-05-22T02:36:53.444Z,1001.60
2019-05-22T02:37:53.442Z,1001.60
2019-05-22T02:38:53.421Z,1001.60
2019-05-22T02:39:53.444Z,1001.58
2019-05-22T02:40:53.410Z,1001.66
2019-05-22T02:41:53.402Z,1001.62
2019-05-22T02:42:53.400Z,1001.71
2019-05-22T02:43:53.367Z,1001.68
2019-05-22T02:44:53.357Z,1001.63
2019-05-22T02:45:53.356Z,1001.63
2019-05-22T02:46:53.341Z,1001.61
2019-05-22T02:47:53.357Z,1001.65
2019-05-22T02:48:53.313Z,1001.73
2019-05-22T02:49:53.317Z,1001.64
2019-05-22T02:50:53.299Z,1001.72
2019-05-22T02:51:53.291Z,1001.67
2019-05-22T02:52:53.282Z,1001.74
2019-05-22T02:53:53.279Z,1001.73
2019-05-22T02:54:53.260Z,1001.80
2019-05-22T02:55:53.240Z,1001.78
2019-05-22T02:56:53.236Z,1001.77
2019-05-22T02:57:53.227Z,1001.82
2019-05-22T02:58:53.227Z,1001.80
2019-05-22T02:59:53.203Z,1001.83
2019-05-22T03:00:53.192Z,1001.78
2019-05-22T03:01:53.177Z,1001.85
2019-05-22T03:02:53.171Z,1001.82
2019-05-22T03:03:53.173Z,1001.85
2019-05-22T03:04:53.151Z,1001.84
2019-05-22T03:05:53.146Z,1001.92
2019-05-22T03:06:53.152Z,1001.91
2019-05-22T03:07:53.143Z,1001.93
2019-05-22T03:08:53.120Z,1001.93
2019-05-22T03:09:53.097Z,1001.96
2019-05-22T03:10:53.085Z,1001.96
2019-05-22T03:11:53.065Z,1002.00
2019-05-22T03:12:53.058Z,1002.03
2019-05-22T03:13:53.048Z,1002.07
2019-05-22T03:14:53.052Z,1002.01
2019-05-22T03:15:53.030Z,1002.02
2019-05-22T03:16:53.022Z,1002.04
2019-05-22T03:17:53.007Z,1002.00
2019-05-22T03:19:07.901Z,1002.06
2019-05-22T03:19:54.003Z,1001.99
2019-05-22T03:20:52.977Z,1002.05
2019-05-22T03:21:52.965Z,1002.00
2019-05-22T03:22:52.959Z,1002.04
2019-05-22T03:23:52.943Z,1002.04
2019-05-22T03:24:52.949Z,1002.02
2019-05-22T03:25:52.924Z,1001.99
2019-05-22T03:26:52.911Z,1002.03
2019-05-22T03:27:52.905Z,1002.02
2019-05-22T03:28:52.897Z,1001.97
2019-05-22T03:29:52.898Z,1001.98
2019-05-22T03:30:52.887Z,1001.97
2019-05-22T03:31:52.869Z,1002.02
2019-05-22T03:32:52.849Z,1001.94
2019-05-22T03:33:52.844Z,1002.00
2019-05-22T03:34:52.830Z,1001.98
2019-05-22T03:35:52.826Z,1002.04
2019-05-22T03:36:52.798Z,1002.03
2019-05-22T03:37:52.793Z,1002.04
2019-05-22T03:38:52.784Z,1002.07
2019-05-22T03:39:52.773Z,1002.06
2019-05-22T03:40:52.774Z,1002.09
2019-05-22T03:41:52.759Z,1002.08
2019-05-22T03:42:52.743Z,1002.08
2019-05-22T03:43:52.740Z,1002.05
2019-05-22T03:44:52.719Z,1001.99
2019-05-22T03:45:52.727Z,1002.10
2019-05-22T03:46:52.691Z,1002.05
2019-05-22T03:47:52.697Z,1002.08
2019-05-22T03:48:52.680Z,1002.04
2019-05-22T03:49:52.663Z,1002.12
2019-05-22T03:50:52.657Z,1002.13
2019-05-22T03:51:52.727Z,1002.10
2019-05-22T03:52:52.633Z,1002.20
2019-05-22T03:53:52.639Z,1002.10
2019-05-22T03:54:52.620Z,1002.14
2019-05-22T03:55:52.623Z,1002.17
2019-05-22T03:56:52.586Z,1002.21
2019-05-22T03:57:52.574Z,1002.20
2019-05-22T03:58:52.564Z,1002.20
2019-05-22T03:59:52.564Z,1002.21
2019-05-22T04:00:52.551Z,1002.19
2019-05-22T04:01:52.579Z,1002.19
2019-05-22T04:02:52.535Z,1002.20
2019-05-22T04:03:52.515Z,1002.26
2019-05-22T04:04:52.506Z,1002.20
2019-05-22T04:05:52.496Z,1002.24
2019-05-22T04:06:52.503Z,1002.24
2019-05-22T04:07:52.467Z,1002.33
2019-05-22T04:08:52.469Z,1002.27
2019-05-22T04:09:52.450Z,1002.30
2019-05-22T04:10:52.466Z,1002.38
2019-05-22T04:11:52.434Z,1002.32
2019-05-22T04:12:52.420Z,1002.31
2019-05-22T04:13:52.416Z,1002.37
2019-05-22T04:14:52.400Z,1002.35
2019-05-22T04:15:52.387Z,1002.35
2019-05-22T04:16:52.384Z,1002.37
2019-05-22T04:17:52.372Z,1002.31
2019-05-22T04:18:52.353Z,1002.31
2019-05-22T04:19:52.350Z,1002.37
2019-05-22T04:20:52.334Z,1002.40
2019-05-22T04:21:52.334Z,1002.37
2019-05-22T04:22:52.320Z,1002.38
2019-05-22T04:23:52.303Z,1002.37
2019-05-22T04:24:52.297Z,1002.44
2019-05-22T04:25:53.497Z,1002.46
2019-05-22T04:26:52.284Z,1002.38
2019-05-22T04:27:52.258Z,1002.44
2019-05-22T04:28:52.252Z,1002.43
2019-05-22T04:29:52.465Z,1002.45
2019-05-22T04:30:52.274Z,1002.43
2019-05-22T04:31:52.253Z,1002.44
2019-05-22T04:32:52.209Z,1002.40
2019-05-22T04:33:52.195Z,1002.47
2019-05-22T04:34:52.192Z,1002.51
2019-05-22T04:35:52.172Z,1002.53
2019-05-22T04:36:52.175Z,1002.46
2019-05-22T04:37:52.151Z,1002.50
2019-05-22T04:38:52.140Z,1002.49
2019-05-22T04:39:52.138Z,1002.52
2019-05-22T04:40:52.111Z,1002.51
2019-05-22T04:41:52.117Z,1002.45
2019-05-22T04:42:52.095Z,1002.48
2019-05-22T04:43:52.099Z,1002.56
2019-05-22T04:44:52.082Z,1002.50
2019-05-22T04:45:52.073Z,1002.58
2019-05-22T04:46:52.081Z,1002.56
2019-05-22T04:47:52.041Z,1002.49
2019-05-22T04:48:52.023Z,1002.58
2019-05-22T04:50:06.899Z,1002.60
2019-05-22T04:50:53.006Z,1002.58
2019-05-22T04:51:52.008Z,1002.56
2019-05-22T04:52:52.006Z,1002.65
2019-05-22T04:53:51.976Z,1002.68
2019-05-22T04:54:52.706Z,1002.65
2019-05-22T04:55:51.966Z,1002.66
2019-05-22T04:56:51.948Z,1002.61
2019-05-22T04:57:51.953Z,1002.63
2019-05-22T04:58:51.932Z,1002.65
2019-05-22T04:59:51.916Z,1002.65
2019-05-22T05:00:51.905Z,1002.54
2019-05-22T05:01:51.900Z,1002.65
2019-05-22T05:02:51.901Z,1002.69
2019-05-22T05:03:51.910Z,1002.72
2019-05-22T05:04:51.876Z,1002.64
2019-05-22T05:05:51.858Z,1002.69
2019-05-22T05:06:51.855Z,1002.70
2019-05-22T05:07:51.826Z,1002.72
2019-05-22T05:08:51.835Z,1002.63
2019-05-22T05:09:51.807Z,1002.72
2019-05-22T05:10:51.804Z,1002.76
2019-05-22T05:11:51.781Z,1002.75
2019-05-22T05:12:51.774Z,1002.80
2019-05-22T05:13:51.770Z,1002.72
2019-05-22T05:14:51.750Z,1002.76
2019-05-22T05:15:51.746Z,1002.81
2019-05-22T05:16:51.734Z,1002.80
2019-05-22T05:17:51.725Z,1002.75
2019-05-22T05:18:51.727Z,1002.80
2019-05-22T05:19:51.713Z,1002.80
2019-05-22T05:20:51.693Z,1002.74
2019-05-22T05:21:51.679Z,1002.86
2019-05-22T05:22:51.671Z,1002.80
2019-05-22T05:23:51.674Z,1002.90
2019-05-22T05:24:51.650Z,1002.89
2019-05-22T05:25:51.629Z,1002.89
2019-05-22T05:26:51.619Z,1002.79
2019-05-22T05:27:51.620Z,1002.83
2019-05-22T05:28:52.510Z,1002.87
2019-05-22T05:29:51.598Z,1002.86
2019-05-22T05:30:51.592Z,1002.84
2019-05-22T05:31:51.572Z,1002.80
2019-05-22T05:32:51.582Z,1002.88
2019-05-22T05:33:51.571Z,1002.80
2019-05-22T05:34:51.539Z,1002.85
2019-05-22T05:35:51.534Z,1002.82
2019-05-22T05:36:51.523Z,1002.87
2019-05-22T05:37:51.515Z,1002.78
2019-05-22T05:38:51.521Z,1002.81
2019-05-22T05:39:51.511Z,1002.85
2019-05-22T05:40:51.475Z,1002.76
2019-05-22T05:41:51.470Z,1002.85
2019-05-22T05:42:51.494Z,1002.79
2019-05-22T05:43:51.487Z,1002.80
2019-05-22T05:44:51.430Z,1002.85
2019-05-22T05:45:51.467Z,1002.81
2019-05-22T05:46:51.412Z,1002.79
2019-05-22T05:47:51.411Z,1002.83
2019-05-22T05:48:51.423Z,1002.81
2019-05-22T05:49:51.405Z,1002.81
2019-05-22T05:50:51.375Z,1002.73
2019-05-22T05:51:51.383Z,1002.78
2019-05-22T05:52:51.463Z,1002.76
2019-05-22T05:53:51.371Z,1002.81
2019-05-22T05:54:51.361Z,1002.76
2019-05-22T05:55:51.324Z,1002.72
2019-05-22T05:56:51.313Z,1002.72
2019-05-22T05:57:51.294Z,1002.73
2019-05-22T05:58:51.283Z,1002.72
2019-05-22T05:59:51.293Z,1002.73
2019-05-22T06:00:51.282Z,1002.75
2019-05-22T06:01:51.262Z,1002.76
2019-05-22T06:02:56.474Z,1002.71
2019-05-22T06:03:52.228Z,1002.83
2019-05-22T06:04:51.226Z,1002.83
2019-05-22T06:05:51.197Z,1002.81
2019-05-22T06:06:51.250Z,1002.83
2019-05-22T06:07:51.185Z,1002.73
2019-05-22T06:08:51.173Z,1002.82
2019-05-22T06:09:51.192Z,1002.84
2019-05-22T06:10:51.175Z,1002.83
2019-05-22T06:11:51.137Z,1002.78
2019-05-22T06:12:51.143Z,1002.82
2019-05-22T06:13:51.135Z,1002.76
2019-05-22T06:14:51.129Z,1002.78
2019-05-22T06:15:51.109Z,1002.85
2019-05-22T06:16:51.095Z,1002.82
2019-05-22T06:17:51.081Z,1002.94
2019-05-22T06:18:51.068Z,1002.93
2019-05-22T06:19:51.096Z,1002.96
2019-05-22T06:21:03.282Z,1002.99
2019-05-22T06:21:52.050Z,1002.99
2019-05-22T06:22:51.040Z,1003.02
2019-05-22T06:23:51.012Z,1003.12
2019-05-22T06:24:51.002Z,1003.11
2019-05-22T06:25:51.019Z,1003.17
2019-05-22T06:26:50.981Z,1003.22
2019-05-22T06:27:50.970Z,1003.13
2019-05-22T06:28:50.975Z,1003.28
2019-05-22T06:29:50.943Z,1003.23
2019-05-22T06:30:50.952Z,1003.23
2019-05-22T06:31:50.929Z,1003.25
2019-05-22T06:32:50.926Z,1003.37
2019-05-22T06:33:50.921Z,1003.29
2019-05-22T06:34:50.900Z,1003.32
2019-05-22T06:35:50.920Z,1003.23
2019-05-22T06:36:50.878Z,1003.27
2019-05-22T06:37:50.859Z,1003.21
2019-05-22T06:38:50.852Z,1003.25
2019-05-22T06:39:50.845Z,1003.25
2019-05-22T06:40:50.825Z,1003.35
2019-05-22T06:41:50.831Z,1003.33
2019-05-22T06:42:50.809Z,1003.31
2019-05-22T06:43:50.790Z,1003.31
2019-05-22T06:44:50.792Z,1003.27
2019-05-22T06:45:50.782Z,1003.30
2019-05-22T06:46:50.789Z,1003.29
2019-05-22T06:47:50.746Z,1003.29
2019-05-22T06:48:50.733Z,1003.24
2019-05-22T06:49:50.727Z,1003.35
2019-05-22T06:50:50.713Z,1003.32
2019-05-22T06:51:50.761Z,1003.31
2019-05-22T06:52:50.696Z,1003.34
2019-05-22T06:53:50.693Z,1003.27
2019-05-22T06:54:50.788Z,1003.34
2019-05-22T06:55:50.683Z,1003.35
2019-05-22T06:56:50.660Z,1003.28
2019-05-22T06:57:50.641Z,1003.37
2019-05-22T06:58:50.630Z,1003.39
2019-05-22T07:00:10.804Z,1003.37
2019-05-22T07:00:51.639Z,1003.41
2019-05-22T07:01:50.593Z,1003.41
2019-05-22T07:02:50.589Z,1003.41
2019-05-22T07:03:50.649Z,1003.42
2019-05-22T07:04:50.565Z,1003.50
2019-05-22T07:05:50.562Z,1003.55
2019-05-22T07:06:50.566Z,1003.49
2019-05-22T07:07:50.526Z,1003.45
2019-05-22T07:08:50.514Z,1003.51
2019-05-22T07:09:50.504Z,1003.49
2019-05-22T07:10:50.494Z,1003.51
2019-05-22T07:11:50.494Z,1003.45
2019-05-22T07:12:51.190Z,1003.30
2019-05-22T07:13:50.469Z,1003.45
2019-05-22T07:14:50.461Z,1003.46
2019-05-22T07:15:50.520Z,1003.46
2019-05-22T07:16:50.428Z,1003.51
2019-05-22T07:17:50.447Z,1003.47
2019-05-22T07:18:50.431Z,1003.49
2019-05-22T07:19:50.396Z,1003.50
2019-05-22T07:20:50.424Z,1003.53
2019-05-22T07:21:50.380Z,1003.56
2019-05-22T07:22:50.365Z,1003.53
2019-05-22T07:23:50.374Z,1003.54
2019-05-22T07:24:50.354Z,1003.53
2019-05-22T07:25:50.363Z,1003.51
2019-05-22T07:26:50.333Z,1003.52
2019-05-22T07:27:50.310Z,1003.60
2019-05-22T07:28:50.317Z,1003.49
2019-05-22T07:29:50.290Z,1003.58
2019-05-22T07:30:50.279Z,1003.57
2019-05-22T07:31:50.273Z,1003.58
2019-05-22T07:32:50.271Z,1003.62
2019-05-22T07:33:50.324Z,1003.57
2019-05-22T07:34:50.254Z,1003.66
2019-05-22T07:36:08.548Z,1003.62
2019-05-22T07:36:51.224Z,1003.56
2019-05-22T07:37:50.214Z,1003.58
2019-05-22T07:38:50.221Z,1003.62
2019-05-22T07:39:50.180Z,1003.63
2019-05-22T07:40:51.454Z,1003.64
2019-05-22T07:41:50.170Z,1003.67
2019-05-22T07:42:50.279Z,1003.71
2019-05-22T07:43:50.172Z,1003.70
2019-05-22T07:44:50.214Z,1003.69
2019-05-22T07:45:50.135Z,1003.70
2019-05-22T07:46:50.121Z,1003.71
2019-05-22T07:47:50.110Z,1003.71
2019-05-22T07:48:50.087Z,1003.63
2019-05-22T07:49:50.101Z,1003.77
2019-05-22T07:50:50.100Z,1003.79
2019-05-22T07:51:57.449Z,1003.76
2019-05-22T07:52:51.041Z,1003.80
2019-05-22T07:53:50.032Z,1003.84
2019-05-22T07:54:50.036Z,1003.88
2019-05-22T07:55:50.019Z,1003.88
2019-05-22T07:56:50.010Z,1003.86
2019-05-22T07:57:50.005Z,1003.97
2019-05-22T07:58:49.995Z,1003.98
2019-05-22T07:59:49.984Z,1004.04
2019-05-22T08:00:49.960Z,1003.99
2019-05-22T08:01:49.976Z,1004.01
2019-05-22T08:02:49.948Z,1004.00
2019-05-22T08:03:49.935Z,1004.01
2019-05-22T08:04:49.945Z,1003.98
2019-05-22T08:05:49.906Z,1004.05
2019-05-22T08:06:49.897Z,1003.92
2019-05-22T08:07:49.922Z,1003.96
2019-05-22T08:08:49.881Z,1004.02
2019-05-22T08:09:49.894Z,1003.99
2019-05-22T08:10:49.863Z,1003.97
2019-05-22T08:11:49.843Z,1004.02
2019-05-22T08:12:49.835Z,1004.04
2019-05-22T08:13:49.821Z,1004.00
2019-05-22T08:14:49.828Z,1003.97
2019-05-22T08:15:49.805Z,1003.97
2019-05-22T08:16:49.793Z,1003.96
2019-05-22T08:17:49.784Z,1004.01
2019-05-22T08:18:49.769Z,1003.98
2019-05-22T08:19:49.780Z,1004.03
2019-05-22T08:20:49.741Z,1003.96
2019-05-22T08:21:49.735Z,1004.04
2019-05-22T08:22:49.728Z,1004.03
2019-05-22T08:23:49.709Z,1004.05
2019-05-22T08:24:49.702Z,1004.04
2019-05-22T08:25:49.706Z,1004.09
2019-05-22T08:26:54.516Z,1004.08
2019-05-22T08:27:50.682Z,1004.17
2019-05-22T08:28:49.766Z,1004.19
2019-05-22T08:29:49.664Z,1004.16
2019-05-22T08:30:49.654Z,1004.21
2019-05-22T08:31:49.627Z,1004.24
2019-05-22T08:32:49.615Z,1004.21
2019-05-22T08:33:49.618Z,1004.10
2019-05-22T08:34:49.592Z,1004.13
2019-05-22T08:35:49.603Z,1004.06
2019-05-22T08:36:49.577Z,1004.11
2019-05-22T08:37:49.558Z,1004.14
2019-05-22T08:38:49.550Z,1004.01
2019-05-22T08:39:49.549Z,1004.02
2019-05-22T08:40:49.547Z,1004.07
2019-05-22T08:41:49.524Z,1004.04
2019-05-22T08:42:49.519Z,1004.06
2019-05-22T08:44:13.731Z,1004.06
2019-05-22T08:44:50.493Z,1004.02
2019-05-22T08:45:49.511Z,1004.00
2019-05-22T08:46:49.473Z,1004.07
2019-05-22T08:47:49.467Z,1004.04
2019-05-22T08:48:49.727Z,1004.10
2019-05-22T08:49:49.436Z,1004.06
2019-05-22T08:50:49.454Z,1004.13
2019-05-22T08:51:49.421Z,1004.07
2019-05-22T08:52:49.400Z,1004.08
2019-05-22T08:53:49.397Z,1004.09
2019-05-22T08:54:49.383Z,1004.03
2019-05-22T08:55:49.370Z,1004.18
2019-05-22T08:56:49.368Z,1004.16
2019-05-22T08:57:49.374Z,1004.15
2019-05-22T08:58:49.333Z,1004.18
2019-05-22T08:59:49.329Z,1004.22
2019-05-22T09:00:49.322Z,1004.17
2019-05-22T09:01:49.322Z,1004.22
2019-05-22T09:02:49.299Z,1004.23
2019-05-22T09:03:49.281Z,1004.22
2019-05-22T09:04:49.269Z,1004.26
2019-05-22T09:05:49.270Z,1004.23
2019-05-22T09:06:49.274Z,1004.38
2019-05-22T09:07:49.253Z,1004.29
2019-05-22T09:08:49.236Z,1004.37
2019-05-22T09:09:49.216Z,1004.39
2019-05-22T09:10:49.212Z,1004.37
2019-05-22T09:11:49.232Z,1004.44
2019-05-22T09:12:49.201Z,1004.46
2019-05-22T09:13:49.184Z,1004.38
2019-05-22T09:14:49.171Z,1004.53
2019-05-22T09:15:49.157Z,1004.49
2019-05-22T09:16:49.153Z,1004.50
2019-05-22T09:17:49.144Z,1004.49
2019-05-22T09:18:49.121Z,1004.55
2019-05-22T09:19:49.115Z,1004.55
2019-05-22T09:20:49.918Z,1004.55
2019-05-22T09:21:49.113Z,1004.55
2019-05-22T09:22:49.088Z,1004.63
2019-05-22T09:23:49.078Z,1004.60
2019-05-22T09:24:49.080Z,1004.64
2019-05-22T09:25:49.059Z,1004.61
2019-05-22T09:26:49.042Z,1004.64
2019-05-22T09:27:49.035Z,1004.54
2019-05-22T09:28:49.013Z,1004.55
2019-05-22T09:29:49.003Z,1004.62
2019-05-22T09:30:48.993Z,1004.63
2019-05-22T09:31:48.988Z,1004.61
2019-05-22T09:32:48.988Z,1004.60
2019-05-22T09:33:49.017Z,1004.66
2019-05-22T09:34:48.955Z,1004.68
2019-05-22T09:35:48.940Z,1004.65
2019-05-22T09:36:48.936Z,1004.66
2019-05-22T09:37:48.930Z,1004.61
2019-05-22T09:38:52.238Z,1004.65
2019-05-22T09:39:48.905Z,1004.67
2019-05-22T09:40:48.892Z,1004.64
2019-05-22T09:41:48.876Z,1004.67
2019-05-22T09:42:48.879Z,1004.67
2019-05-22T09:43:48.856Z,1004.60
2019-05-22T09:44:48.844Z,1004.61
2019-05-22T09:45:48.838Z,1004.58
2019-05-22T09:46:48.831Z,1004.57
2019-05-22T09:47:48.820Z,1004.59
2019-05-22T09:48:48.824Z,1004.62
2019-05-22T09:49:48.786Z,1004.60
2019-05-22T09:50:48.780Z,1004.63
2019-05-22T09:51:48.774Z,1004.63
2019-05-22T09:52:57.556Z,1004.58
2019-05-22T09:53:49.747Z,1004.68
2019-05-22T09:54:48.743Z,1004.70
2019-05-22T09:55:48.721Z,1004.64
2019-05-22T09:56:48.713Z,1004.62
2019-05-22T09:57:48.737Z,1004.67
2019-05-22T09:58:48.694Z,1004.60
2019-05-22T09:59:48.679Z,1004.72
2019-05-22T10:00:48.670Z,1004.70
2019-05-22T10:01:48.659Z,1004.72
2019-05-22T10:02:48.650Z,1004.73
2019-05-22T10:03:48.655Z,1004.65
2019-05-22T10:04:48.631Z,1004.61
2019-05-22T10:05:48.724Z,1004.75
2019-05-22T10:06:48.620Z,1004.63
2019-05-22T10:07:59.868Z,1004.69
2019-05-22T10:08:49.595Z,1004.70
2019-05-22T10:09:48.580Z,1004.86
2019-05-22T10:10:48.592Z,1004.84
2019-05-22T10:11:48.556Z,1004.87
2019-05-22T10:12:48.562Z,1004.83
2019-05-22T10:13:48.811Z,1004.87
2019-05-22T10:14:48.517Z,1004.88
2019-05-22T10:15:48.514Z,1004.80
2019-05-22T10:16:48.506Z,1004.92
2019-05-22T10:17:48.489Z,1004.89
2019-05-22T10:18:52.805Z,1004.90
2019-05-22T10:19:49.468Z,1004.90
2019-05-22T10:20:48.452Z,1004.94
2019-05-22T10:21:48.449Z,1004.94
2019-05-22T10:22:48.445Z,1004.95
2019-05-22T10:23:48.430Z,1004.92
2019-05-22T10:24:50.294Z,1004.88
2019-05-22T10:25:48.409Z,1004.95
2019-05-22T10:26:48.398Z,1004.92
2019-05-22T10:27:48.393Z,1004.95
2019-05-22T10:28:48.371Z,1004.88
2019-05-22T10:29:48.379Z,1004.89
2019-05-22T10:30:48.351Z,1004.89
2019-05-22T10:31:48.335Z,1004.94
2019-05-22T10:32:48.328Z,1004.89
2019-05-22T10:33:51.781Z,1004.91
2019-05-22T10:34:48.331Z,1004.87
2019-05-22T10:35:48.297Z,1004.86
2019-05-22T10:36:48.286Z,1004.91
2019-05-22T10:37:48.278Z,1004.93
2019-05-22T10:38:48.280Z,1004.94
2019-05-22T10:39:48.248Z,1004.92
2019-05-22T10:40:48.256Z,1004.92
2019-05-22T10:41:48.229Z,1004.94
2019-05-22T10:42:48.216Z,1004.95
2019-05-22T10:43:48.218Z,1004.96
2019-05-22T10:44:48.208Z,1004.95
2019-05-22T10:45:48.200Z,1004.95
2019-05-22T10:46:48.176Z,1005.00
2019-05-22T10:47:48.173Z,1005.04
2019-05-22T10:48:48.158Z,1004.97
2019-05-22T10:49:48.148Z,1004.98
2019-05-22T10:50:48.150Z,1005.07
2019-05-22T10:51:48.126Z,1005.00
2019-05-22T10:52:53.723Z,1004.97
2019-05-22T10:53:49.192Z,1005.05
2019-05-22T10:54:48.350Z,1005.06
2019-05-22T10:55:48.642Z,1005.13
2019-05-22T10:56:48.388Z,1005.09
2019-05-22T10:57:48.674Z,1005.05
2019-05-22T10:58:48.321Z,1005.09
2019-05-22T10:59:48.175Z,1005.14
2019-05-22T11:00:48.236Z,1005.10
2019-05-22T11:01:48.555Z,1005.19
2019-05-22T11:02:48.311Z,1005.08
2019-05-22T11:03:48.197Z,1005.15
2019-05-22T11:04:48.261Z,1005.12
2019-05-22T11:06:03.819Z,1005.15
2019-05-22T11:06:50.365Z,1005.13
2019-05-22T11:07:47.957Z,1005.19
2019-05-22T11:08:47.972Z,1005.11
2019-05-22T11:09:47.937Z,1005.06
2019-05-22T11:10:48.004Z,1005.20
2019-05-22T11:11:47.929Z,1005.22
2019-05-22T11:12:47.900Z,1005.28
2019-05-22T11:14:00.564Z,1005.24
2019-05-22T11:14:48.874Z,1005.35
2019-05-22T11:15:47.876Z,1005.29
2019-05-22T11:16:47.858Z,1005.24
2019-05-22T11:17:47.855Z,1005.33
2019-05-22T11:18:47.833Z,1005.31
2019-05-22T11:19:47.838Z,1005.26
2019-05-22T11:20:48.599Z,1005.33
2019-05-22T11:21:47.807Z,1005.35
2019-05-22T11:22:47.806Z,1005.36
2019-05-22T11:23:52.617Z,1005.39
2019-05-22T11:24:48.766Z,1005.32
2019-05-22T11:25:47.759Z,1005.32
2019-05-22T11:26:47.743Z,1005.38
2019-05-22T11:27:47.761Z,1005.48
2019-05-22T11:28:47.728Z,1005.43
2019-05-22T11:29:47.719Z,1005.36
2019-05-22T11:30:47.708Z,1005.45
2019-05-22T11:31:47.694Z,1005.48
2019-05-22T11:32:47.709Z,1005.44
2019-05-22T11:33:47.674Z,1005.44
2019-05-22T11:34:47.668Z,1005.50
2019-05-22T11:35:47.649Z,1005.49
2019-05-22T11:36:47.641Z,1005.50
2019-05-22T11:37:47.643Z,1005.41
2019-05-22T11:38:47.630Z,1005.47
2019-05-22T11:39:47.621Z,1005.46
2019-05-22T11:40:47.599Z,1005.54
2019-05-22T11:41:47.594Z,1005.52
2019-05-22T11:42:47.586Z,1005.52
2019-05-22T11:43:47.573Z,1005.52
2019-05-22T11:44:47.552Z,1005.55
2019-05-22T11:45:47.542Z,1005.49
2019-05-22T11:46:47.533Z,1005.43
2019-05-22T11:47:47.529Z,1005.53
2019-05-22T11:48:47.532Z,1005.46
2019-05-22T11:49:47.499Z,1005.45
2019-05-22T11:50:47.527Z,1005.47
2019-05-22T11:51:47.483Z,1005.46
2019-05-22T11:52:47.474Z,1005.47
2019-05-22T11:53:47.471Z,1005.52
2019-05-22T11:54:47.452Z,1005.55
2019-05-22T11:55:47.432Z,1005.47
2019-05-22T11:56:47.422Z,1005.59
2019-05-22T11:57:47.413Z,1005.58
2019-05-22T11:58:47.426Z,1005.53
2019-05-22T11:59:47.395Z,1005.55
2019-05-22T12:00:47.394Z,1005.54
2019-05-22T12:01:47.379Z,1005.62
2019-05-22T12:02:47.363Z,1005.57
2019-05-22T12:03:47.363Z,1005.56
2019-05-22T12:04:48.903Z,1005.56
2019-05-22T12:05:47.328Z,1005.55